Time;durP1;ratioP1;P1;durP2;ratioP2;P2;SDS_P1;SDS_P2;PMS_P1;PMS_P2;Temp;Humidity;BMP_temperature;BMP_pressure;BME280_temperature;BME280_humidity;BME280_pressure;Samples;Min_cycle;Max_cycle;Signal;HPM_P1;HPM_P2
2023/08/06 00:00:39;;;;;;;4.13;2.47;;;;;;;15.24;100.00;100352.16;5089664;28;20021;-37
2023/08/06 00:03:05;;;;;;;3.88;2.33;;;;;;;15.14;100.00;100336.66;5089948;28;20050;-37
2023/08/06 00:05:30;;;;;;;;;;;;;;;15.33;100.00;100355.97;5090005;28;20035;-37
2023/08/06 00:07:56;;;;;;;2.70;2.30;;;;;;;15.30;100.00;100353.78;5090445;28;19919;-37
2023/08/06 00:10:21;;;;;;;;;;;;;;;15.31;100.00;100358.13;5082062;28;20369;-37
2023/08/06 00:12:46;;;;;;;3.57;2.67;;;;;;;15.18;100.00;100347.81;5076607;28;20276;-37
2023/08/06 00:15:12;;;;;;;;;;;;;;;15.27;100.00;100358.97;5076957;28;20328;-38
2023/08/06 00:17:37;;;;;;;3.70;2.50;;;;;;;15.23;100.00;100355.19;5076357;28;19981;-38
2023/08/06 00:20:05;;;;;;;3.53;2.60;;;;;;;15.08;100.00;100335.03;5075929;28;20024;-38
2023/08/06 00:22:35;;;;;;;3.13;2.83;;;;;;;15.16;100.00;100339.91;5076390;28;20024;-36
2023/08/06 00:25:01;;;;;;;5.32;3.33;;;;;;;15.23;100.00;100344.28;5076282;28;20025;-37
2023/08/06 00:27:27;;;;;;;;;;;;;;;15.29;100.00;100341.25;5076450;28;20025;-37
2023/08/06 00:29:52;;;;;;;3.72;2.90;;;;;;;15.19;100.00;100344.81;5076501;28;19953;-37
2023/08/06 00:32:18;;;;;;;;;;;;;;;15.30;100.00;100342.06;5076955;28;20024;-37
2023/08/06 00:34:43;;;;;;;2.47;2.28;;;;;;;15.25;100.00;100344.81;5076418;28;19909;-37
2023/08/06 00:37:08;;;;;;;3.08;2.25;;;;;;;15.26;100.00;100341.81;5075730;28;20469;-37
2023/08/06 00:39:34;;;;;;;;;;;;;;;15.35;100.00;100339.34;5076400;28;20485;-37
2023/08/06 00:41:59;;;;;;;3.37;2.73;;;;;;;15.25;100.00;100339.34;5075743;28;19912;-37
2023/08/06 00:44:24;;;;;;;2.90;2.30;;;;;;;15.26;100.00;100338.25;5076007;28;20357;-37
2023/08/06 00:46:50;;;;;;;;;;;;;;;15.35;100.00;100337.44;5076928;28;20068;-37
2023/08/06 00:49:15;;;;;;;3.17;2.10;;;;;;;15.28;100.00;100344.28;5075888;28;20010;-37
2023/08/06 00:51:41;;;;;;;;;;;;;;;15.35;100.00;100336.63;5076290;28;20036;-37
2023/08/06 00:54:06;;;;;;;2.55;2.30;;;;;;;15.29;100.00;100338.53;5076084;28;19916;-37
2023/08/06 00:56:35;;;;;;;;;;;;;;;15.35;100.00;100336.63;5076756;28;20108;-37
2023/08/06 00:59:01;;;;;;;3.70;3.00;;;;;;;15.26;100.00;100335.53;5075696;28;19969;-37
2023/08/06 01:01:26;;;;;;;4.43;3.05;;;;;;;15.22;100.00;100323.56;5076192;28;20028;-37
2023/08/06 01:03:52;;;;;;;;;;;;;;;15.33;100.00;100338.81;5075408;28;20095;-37
2023/08/06 01:06:23;;;;;;;4.28;2.65;;;;;;;15.23;100.00;100328.75;5075630;28;19919;-37
2023/08/06 01:09:01;;;;;;;5.82;2.70;;;;;;;15.19;100.00;100338.56;5076084;28;20075;-37
2023/08/06 01:11:52;;;;;;;3.67;2.78;;;;;;;15.15;100.00;100330.09;5075483;28;20385;-37
2023/08/06 01:14:30;;;;;;;3.25;2.95;;;;;;;15.18;100.00;100326.84;5075347;28;20025;-37
2023/08/06 01:16:58;;;;;;;3.05;2.42;;;;;;;15.24;100.00;100329.56;5075935;28;20372;-37
2023/08/06 01:19:24;;;;;;;2.75;2.50;;;;;;;15.25;100.00;100328.47;5074612;28;20480;-37
2023/08/06 01:21:49;;;;;;;5.22;2.97;;;;;;;15.23;100.00;100331.47;5074074;28;20111;-36
2023/08/06 01:24:15;;;;;;;;;;;;;;;15.31;100.00;100336.34;5075659;28;20028;-37
2023/08/06 01:26:57;;;;;;;4.78;2.92;;;;;;;15.24;100.00;100329.56;5075469;28;19915;-37
2023/08/06 01:29:31;;;;;;;3.00;2.70;;;;;;;15.23;100.00;100336.09;5074814;28;20069;-37
2023/08/06 01:31:58;;;;;;;2.90;2.50;;;;;;;15.23;100.00;100334.19;5075336;28;20028;-37
2023/08/06 01:34:27;;;;;;;6.88;2.90;;;;;;;15.25;100.00;100337.44;5074695;28;20078;-37
2023/08/06 01:36:53;;;;;;;3.00;2.63;;;;;;;15.25;100.00;100333.91;5075009;28;20059;-37
2023/08/06 01:39:21;;;;;;;3.65;2.45;;;;;;;15.13;100.00;100318.69;5074232;28;20052;-41
2023/08/06 01:41:47;;;;;;;3.30;2.15;;;;;;;15.22;100.00;100337.19;5075061;28;20482;-37
2023/08/06 01:44:14;;;;;;;3.33;2.22;;;;;;;15.22;100.00;100335.25;5074819;28;20063;-37
2023/08/06 01:46:39;;;;;;;2.78;2.33;;;;;;;15.20;100.00;100334.72;5074461;28;20046;-37
2023/08/06 01:49:04;;;;;;;4.10;2.15;;;;;;;15.17;100.00;100330.63;5074454;28;20183;-37
2023/08/06 01:51:30;;;;;;;3.88;2.33;;;;;;;15.16;100.00;100333.63;5074687;28;20090;-37
2023/08/06 01:53:55;;;;;;;;;;;;;;;15.28;100.00;100336.09;5074707;28;20108;-37
2023/08/06 01:56:20;;;;;;;3.43;2.10;;;;;;;15.13;100.00;100323.31;5074618;28;19916;-36
2023/08/06 01:58:46;;;;;;;;;;;;;;;15.26;100.00;100332.81;5074644;28;20291;-37
2023/08/06 02:01:11;;;;;;;6.50;2.00;;;;;;;15.19;100.00;100328.47;5074293;28;20372;-37
2023/08/06 02:03:36;;;;;;;3.92;1.80;;;;;;;15.13;100.00;100326.84;5074170;28;20305;-37
2023/08/06 02:06:02;;;;;;;;;;;;;;;15.20;100.00;100335.53;5074861;28;20384;-37
2023/08/06 02:08:27;;;;;;;3.08;1.95;;;;;;;15.09;100.00;100325.75;5074293;28;19913;-37
2023/08/06 02:10:53;;;;;;;3.15;2.00;;;;;;;15.11;100.00;100325.47;5074411;28;20496;-37
2023/08/06 02:13:18;;;;;;;;;;;;;;;15.19;100.00;100325.75;5074351;28;20457;-37
2023/08/06 02:15:47;;;;;;;3.55;1.70;;;;;;;15.12;100.00;100327.09;5074550;28;19916;-38
2023/08/06 02:18:13;;;;;;;3.80;2.28;;;;;;;15.15;100.00;100332.81;5074145;28;20354;-38
2023/08/06 02:20:38;;;;;;;;;;;;;;;15.20;100.00;100330.09;5074288;28;20423;-38
2023/08/06 02:23:03;;;;;;;6.38;3.05;;;;;;;15.10;100.00;100330.09;5073912;28;19909;-37
2023/08/06 02:25:29;;;;;;;;;;;;;;;15.20;100.00;100330.09;5073964;28;20103;-38
2023/08/06 02:27:54;;;;;;;4.10;2.23;;;;;;;15.12;100.00;100325.19;5074082;28;19913;-38
2023/08/06 02:30:19;;;;;;;3.20;1.95;;;;;;;15.11;100.00;100334.47;5073512;28;20277;-38
2023/08/06 02:32:45;;;;;;;;;;;;;;;15.19;100.00;100333.91;5074768;28;20118;-36
2023/08/06 02:35:10;;;;;;;3.15;2.25;;;;;;;15.09;100.00;100325.75;5073713;28;19915;-38
2023/08/06 02:37:35;;;;;;;;;;;;;;;15.18;100.00;100328.75;5074888;28;20039;-38
2023/08/06 02:40:01;;;;;;;3.90;2.03;;;;;;;15.14;100.00;100324.94;5073892;28;19952;-38
2023/08/06 02:42:27;;;;;;;;;;;;;;;15.22;100.00;100327.09;5074366;28;20028;-38
2023/08/06 02:44:55;;;;;;;2.95;2.20;;;;;;;15.12;100.00;100321.66;5073603;28;19913;-38
2023/08/06 02:47:20;;;;;;;4.65;2.25;;;;;;;15.10;100.00;100321.94;5073770;28;20473;-38
2023/08/06 02:49:46;;;;;;;2.72;2.20;;;;;;;15.11;100.00;100318.13;5073560;28;20070;-38
2023/08/06 02:52:11;;;;;;;;;;;;;;;15.20;100.00;100315.66;5074012;28;20484;-38
2023/08/06 02:54:36;;;;;;;4.63;2.37;;;;;;;15.15;100.00;100315.69;5073501;28;19953;-38
2023/08/06 02:57:02;;;;;;;;;;;;;;;15.24;100.00;100313.22;5074165;28;20262;-38
2023/08/06 02:59:27;;;;;;;3.40;2.58;;;;;;;15.14;100.00;100312.13;5073845;28;20372;-38
2023/08/06 03:01:52;;;;;;;;;;;;;;;15.15;100.00;100321.13;5074726;28;20036;-38
2023/08/06 03:04:18;;;;;;;3.97;2.80;;;;;;;15.04;100.00;100306.72;5073966;28;19962;-38
2023/08/06 03:06:43;;;;;;;;;;;;;;;15.11;100.00;100318.13;5073846;28;20024;-38
2023/08/06 03:09:08;;;;;;;5.25;3.13;;;;;;;14.94;100.00;100298.53;5073352;28;20360;-38
2023/08/06 03:11:34;;;;;;;;;;;;;;;15.14;100.00;100319.50;5074105;28;20064;-38
2023/08/06 03:13:59;;;;;;;4.20;2.33;;;;;;;15.11;100.00;100320.03;5073016;28;19916;-38
2023/08/06 03:16:24;;;;;;;;;;;;;;;15.17;100.00;100325.19;5073753;28;20044;-38
2023/08/06 03:18:49;;;;;;;4.47;2.50;;;;;;;15.10;100.00;100319.22;5072938;28;19913;-38
2023/08/06 03:21:15;;;;;;;14.18;3.50;;;;;;;15.00;100.00;100308.34;5073516;28;20290;-38
2023/08/06 03:23:40;;;;;;;;;;;;;;;15.15;100.00;100316.50;5073619;28;20036;-38
2023/08/06 03:26:05;;;;;;;6.15;2.67;;;;;;;14.99;100.00;100305.91;5073511;28;19915;-37
2023/08/06 03:28:31;;;;;;;;;;;;;;;15.15;100.00;100318.41;5073655;28;20028;-36
2023/08/06 03:31:03;;;;;;;4.83;2.13;;;;;;;15.10;100.00;100316.50;5073447;28;19915;-37
2023/08/06 03:33:29;;;;;;;2.67;2.25;;;;;;;15.09;100.00;100316.78;5073880;28;20294;-36
2023/08/06 03:35:54;;;;;;;3.53;2.40;;;;;;;15.08;100.00;100320.56;5073151;28;20053;-37
2023/08/06 03:38:19;;;;;;;;;;;;;;;15.17;100.00;100319.75;5074340;28;20044;-37
2023/08/06 03:40:46;;;;;;;3.77;2.17;;;;;;;15.10;100.00;100324.66;5073626;28;19917;-37
2023/08/06 03:43:11;;;;;;;3.50;2.67;;;;;;;15.09;100.00;100325.75;5073589;28;20259;-36
2023/08/06 03:45:37;;;;;;;3.00;2.50;;;;;;;15.07;100.00;100325.19;5074947;28;20491;-37
2023/08/06 03:48:02;;;;;;;3.03;2.25;;;;;;;15.02;100.00;100308.06;5077140;28;20035;-37
2023/08/06 03:50:27;;;;;;;;;;;;;;;15.17;100.00;100324.38;5077920;28;20034;-37
2023/08/06 03:52:53;;;;;;;3.47;2.20;;;;;;;15.05;100.00;100310.25;5076707;28;19959;-37
2023/08/06 03:55:18;;;;;;;;;;;;;;;15.19;100.00;100324.94;5076739;28;20349;-37
2023/08/06 03:57:43;;;;;;;3.83;2.40;;;;;;;15.09;100.00;100324.94;5076569;28;19913;-37
2023/08/06 04:00:09;;;;;;;2.38;2.13;;;;;;;15.08;100.00;100326.00;5076807;28;20723;-37
2023/08/06 04:02:34;;;;;;;;;;;;;;;15.17;100.00;100327.91;5076902;28;20465;-36
2023/08/06 04:05:01;;;;;;;2.97;2.43;;;;;;;15.10;100.00;100323.84;5076631;28;19953;-36
2023/08/06 04:07:26;;;;;;;2.80;2.00;;;;;;;15.12;100.00;100333.38;5076346;28;20739;-37
2023/08/06 04:09:57;;;;;;;3.95;2.22;;;;;;;14.99;100.00;100309.44;5076047;28;20063;-37
2023/08/06 04:12:23;;;;;;;3.45;2.83;;;;;;;15.06;100.00;100328.22;5076389;28;20052;-36
2023/08/06 04:14:50;;;;;;;4.38;2.45;;;;;;;15.00;100.00;100319.22;5076293;28;20063;-37
2023/08/06 04:17:16;;;;;;;3.42;2.33;;;;;;;15.04;100.00;100325.75;5076205;28;20071;-37
2023/08/06 04:19:41;;;;;;;3.83;2.42;;;;;;;15.05;100.00;100324.66;5076073;28;20033;-36
2023/08/06 04:22:06;;;;;;;;;;;;;;;15.19;100.00;100336.66;5076303;28;20033;-36
2023/08/06 04:24:32;;;;;;;3.13;2.35;;;;;;;15.01;100.00;100314.59;5076373;28;19948;-37
2023/08/06 04:26:57;;;;;;;;;;;;;;;15.22;100.00;100331.72;5076519;28;20435;-37
2023/08/06 04:29:22;;;;;;;3.50;2.53;;;;;;;15.13;100.00;100340.47;5076577;28;19915;-36
2023/08/06 04:31:47;;;;;;;6.30;2.70;;;;;;;15.13;100.00;100331.47;5075705;28;20251;-36
2023/08/06 04:34:13;;;;;;;;;;;;;;;15.22;100.00;100340.72;5076287;28;20028;-37
2023/08/06 04:36:38;;;;;;;4.25;2.20;;;;;;;15.14;100.00;100338.56;5075563;28;19953;-37
2023/08/06 04:39:04;;;;;;;3.72;2.13;;;;;;;15.08;100.00;100345.91;5075722;28;20032;-37
2023/08/06 04:41:29;;;;;;;;;;;;;;;15.18;100.00;100345.09;5076005;28;20054;-37
2023/08/06 04:43:56;;;;;;;2.73;1.93;;;;;;;15.11;100.00;100344.53;5075753;28;19961;-37
2023/08/06 04:46:21;;;;;;;3.70;2.28;;;;;;;15.04;100.00;100333.13;5075649;28;20349;-37
2023/08/06 04:48:46;;;;;;;4.70;2.50;;;;;;;15.14;100.00;100347.53;5075678;28;20104;-37
2023/08/06 04:51:12;;;;;;;;;;;;;;;15.23;100.00;100345.09;5075836;28;20036;-37
2023/08/06 04:53:37;;;;;;;3.30;2.22;;;;;;;15.13;100.00;100343.19;5074578;28;19916;-37
2023/08/06 04:56:02;;;;;;;;;;;;;;;15.26;100.00;100349.16;5076402;28;20056;-38
2023/08/06 04:58:28;;;;;;;3.05;2.60;;;;;;;15.19;100.00;100342.09;5075459;28;20399;-37
2023/08/06 05:00:53;;;;;;;;;;;;;;;15.31;100.00;100349.16;5076540;28;20095;-37
2023/08/06 05:03:19;;;;;;;4.45;2.67;;;;;;;15.26;100.00;100346.44;5075354;28;19908;-37
2023/08/06 05:05:46;;;;;;;4.60;2.70;;;;;;;15.24;100.00;100340.47;5075406;28;20071;-38
2023/08/06 05:08:18;;;;;;;4.07;2.20;;;;;;;15.32;100.00;100346.16;5075282;28;20028;-37
2023/08/06 05:10:45;;;;;;;4.35;2.60;;;;;;;15.27;100.00;100348.06;5075161;28;20024;-37
2023/08/06 05:13:10;;;;;;;3.78;2.38;;;;;;;15.27;100.00;100354.31;5074947;28;20028;-37
2023/08/06 05:15:36;;;;;;;4.35;2.40;;;;;;;15.30;100.00;100359.22;5075129;28;20021;-41
2023/08/06 05:18:01;;;;;;;;;;;;;;;15.38;100.00;100366.88;5075831;28;20032;-37
2023/08/06 05:20:26;;;;;;;2.60;2.13;;;;;;;15.26;100.00;100354.59;5074994;28;19919;-37
2023/08/06 05:22:52;;;;;;;4.28;2.38;;;;;;;15.25;100.00;100363.88;5075557;28;20266;-37
2023/08/06 05:25:17;;;;;;;;;;;;;;;15.39;100.00;100381.31;5075391;28;20028;-37
2023/08/06 05:27:42;;;;;;;4.43;2.40;;;;;;;15.33;100.00;100382.41;5074988;28;20002;-37
2023/08/06 05:30:08;;;;;;;4.18;2.60;;;;;;;15.33;100.00;100380.50;5074834;28;20344;-37
2023/08/06 05:32:34;;;;;;;;;;;;;;;15.44;100.00;100392.19;5075470;28;20039;-37
2023/08/06 05:34:59;;;;;;;3.50;2.30;;;;;;;15.37;100.00;100388.91;5074454;28;19917;-37
2023/08/06 05:37:24;;;;;;;;;;;;;;;15.44;100.00;100384.00;5075176;28;20119;-37
2023/08/06 05:39:49;;;;;;;6.33;2.07;;;;;;;15.39;100.00;100393.00;5074564;28;20352;-37
2023/08/06 05:42:15;;;;;;;4.90;2.30;;;;;;;15.39;100.00;100397.66;5074866;28;20642;-37
2023/08/06 05:44:40;;;;;;;;;;;;;;;15.49;100.00;100403.09;5075753;28;20033;-37
2023/08/06 05:47:06;;;;;;;3.47;3.00;;;;;;;15.39;100.00;100405.81;5075091;28;19908;-37
2023/08/06 05:49:31;;;;;;;3.95;2.42;;;;;;;15.45;100.00;100412.88;5074696;28;20278;-37
2023/08/06 05:51:56;;;;;;;;;;;;;;;15.54;100.00;100408.53;5074920;28;20052;-37
2023/08/06 05:54:22;;;;;;;4.47;2.70;;;;;;;15.49;100.00;100408.53;5074372;28;20353;-37
2023/08/06 05:56:47;;;;;;;;;;;;;;;15.58;100.00;100412.34;5074832;28;20111;-36
2023/08/06 05:59:12;;;;;;;4.50;2.97;;;;;;;15.47;100.00;100402.56;5073960;28;19923;-37
2023/08/06 06:01:38;;;;;;;;;;;;;;;15.62;100.00;100409.88;5074978;28;20258;-37
2023/08/06 06:04:03;;;;;;;4.85;2.90;;;;;;;15.57;100.00;100421.63;5074181;28;19916;-37
2023/08/06 06:06:29;;;;;;;;;;;;;;;15.66;100.00;100430.06;5075423;28;20032;-37
2023/08/06 06:08:54;;;;;;;3.10;2.43;;;;;;;15.58;100.00;100428.69;5073650;28;19919;-36
2023/08/06 06:11:21;;;;;;;5.57;3.15;;;;;;;15.50;100.00;100415.63;5074638;28;20308;-37
2023/08/06 06:13:49;;;;;;;6.05;3.00;;;;;;;15.60;100.00;100431.94;5073962;28;20032;-37
2023/08/06 06:16:14;;;;;;;3.78;2.88;;;;;;;15.64;100.00;100440.44;5074778;28;20075;-37
2023/08/06 06:18:40;;;;;;;3.38;2.83;;;;;;;15.68;100.00;100444.25;5074134;28;20024;-37
2023/08/06 06:21:05;;;;;;;;;;;;;;;15.79;100.00;100445.03;5074055;28;20121;-37
2023/08/06 06:23:30;;;;;;;4.10;3.23;;;;;;;15.71;100.00;100443.69;5073893;28;20003;-37
2023/08/06 06:25:55;;;;;;;;;;;;;;;15.83;100.00;100446.94;5074366;28;20263;-37
2023/08/06 06:28:21;;;;;;;3.57;3.00;;;;;;;15.79;100.00;100448.59;5074450;28;20007;-37
2023/08/06 06:30:46;;;;;;;;;;;;;;;15.88;100.00;100449.66;5074383;28;20297;-37
2023/08/06 06:33:12;;;;;;;4.00;2.90;;;;;;;15.84;100.00;100456.75;5074060;28;20368;-37
2023/08/06 06:35:37;;;;;;;;;;;;;;;15.94;100.00;100464.09;5074374;28;20067;-37
2023/08/06 06:38:02;;;;;;;7.00;3.33;;;;;;;15.84;100.00;100455.94;5073406;28;20361;-37
2023/08/06 06:40:28;;;;;;;;;;;;;;;15.96;100.00;100472.84;5074622;28;20112;-37
2023/08/06 06:42:53;;;;;;;5.75;3.55;;;;;;;15.90;100.00;100473.91;5073673;28;20024;-37
2023/08/06 06:45:18;;;;;;;;;;;;;;;15.99;100.00;100472.28;5074358;28;20436;-37
2023/08/06 06:47:44;;;;;;;4.30;3.50;;;;;;;15.88;100.00;100476.94;5073612;28;19919;-37
2023/08/06 06:50:09;;;;;;;;;;;;;;;16.00;100.00;100476.63;5074035;28;20267;-37
2023/08/06 06:52:35;;;;;;;4.68;4.13;;;;;;;15.91;100.00;100476.38;5073211;28;20265;-37
2023/08/06 06:55:00;;;;;;;;;;;;;;;16.02;100.00;100479.09;5073981;28;20109;-37
2023/08/06 06:57:26;;;;;;;5.15;4.00;;;;;;;15.90;100.00;100469.28;5073714;28;19915;-37
2023/08/06 06:59:51;;;;;;;;;;;;;;;16.03;100.00;100484.25;5074592;28;20491;-37
2023/08/06 07:02:16;;;;;;;6.90;4.23;;;;;;;15.91;100.00;100483.75;5073699;28;20352;-38
2023/08/06 07:04:41;;;;;;;;;;;;;;;16.01;100.00;100481.00;5074141;28;20619;-38
2023/08/06 07:07:07;;;;;;;5.07;4.10;;;;;;;15.93;100.00;100487.00;5073686;28;19912;-38
2023/08/06 07:09:32;;;;;;;;;;;;;;;16.00;100.00;100487.53;5073775;28;20361;-38
2023/08/06 07:11:57;;;;;;;5.03;4.53;;;;;;;15.92;100.00;100494.38;5073691;28;19912;-38
2023/08/06 07:14:25;;;;;;;5.18;4.63;;;;;;;15.89;100.00;100494.91;5073102;28;20366;-38
2023/08/06 07:16:50;;;;;;;5.07;4.32;;;;;;;15.89;100.00;100502.28;5073041;28;20029;-38
2023/08/06 07:19:16;;;;;;;5.53;4.57;;;;;;;15.86;100.00;100503.66;5071969;28;20029;-37
2023/08/06 07:21:41;;;;;;;;;;;;;;;15.93;100.00;100508.81;5077368;28;20116;-38
2023/08/06 07:24:06;;;;;;;4.63;3.17;;;;;;;15.74;100.00;100518.66;5077261;28;20348;-38
2023/08/06 07:26:32;;;;;;;;;;;;;;;15.77;100.00;100529.84;5078485;28;20596;-38
2023/08/06 07:28:57;;;;;;;1.30;1.00;;;;;;;15.45;100.00;100525.41;5076867;28;19909;-38
2023/08/06 07:31:22;;;;;;;;;;;;;;;15.51;100.00;100519.97;5078441;28;20800;-37
2023/08/06 07:33:48;;;;;;;1.23;0.50;;;;;;;15.18;100.00;100535.75;5077064;28;19914;-37
2023/08/06 07:36:14;;;;;;;0.93;0.60;;;;;;;15.03;100.00;100530.22;5077377;28;20334;-38
2023/08/06 07:38:40;;;;;;;4.43;0.80;;;;;;;14.93;100.00;100541.91;5076943;28;20024;-37
2023/08/06 07:41:05;;;;;;;2.13;1.13;;;;;;;14.82;100.00;100545.69;5077306;28;20032;-38
2023/08/06 07:43:31;;;;;;;1.67;1.05;;;;;;;14.70;100.00;100545.94;5076865;28;20028;-39
2023/08/06 07:46:02;;;;;;;;;;;;;;;14.71;100.00;100554.91;5077293;28;20032;-38
2023/08/06 07:48:28;;;;;;;5.72;1.52;;;;;;;14.52;100.00;100563.50;5077184;28;19908;-37
2023/08/06 07:50:55;;;;;;;3.05;1.50;;;;;;;14.40;100.00;100573.75;5077583;28;20029;-37
2023/08/06 07:53:26;;;;;;;3.92;1.88;;;;;;;14.27;100.00;100572.31;5076443;28;20029;-37
2023/08/06 07:55:53;;;;;;;3.47;1.90;;;;;;;14.14;100.00;100562.69;5076631;28;20425;-37
2023/08/06 07:58:20;;;;;;;3.08;1.92;;;;;;;14.14;100.00;100573.56;5076191;28;20087;-37
2023/08/06 08:00:46;;;;;;;2.30;1.98;;;;;;;14.07;100.00;100575.72;5076578;28;20036;-37
2023/08/06 08:03:13;;;;;;;4.03;2.13;;;;;;;14.05;100.00;100577.84;5076285;28;20033;-37
2023/08/06 08:05:39;;;;;;;2.72;2.42;;;;;;;14.00;100.00;100575.09;5076482;28;20020;-37
2023/08/06 08:08:04;;;;;;;4.20;2.50;;;;;;;13.96;100.00;100575.88;5077008;28;20499;-37
2023/08/06 08:10:31;;;;;;;3.50;2.75;;;;;;;13.91;100.00;100579.41;5076992;28;20462;-36
2023/08/06 08:12:56;;;;;;;5.38;2.97;;;;;;;13.90;100.00;100589.44;5076446;28;20421;-36
2023/08/06 08:15:22;;;;;;;4.25;2.58;;;;;;;13.83;100.00;100588.84;5076608;28;20029;-36
2023/08/06 08:17:47;;;;;;;4.15;2.85;;;;;;;13.82;100.00;100591.81;5076482;28;20107;-37
2023/08/06 08:20:13;;;;;;;;;;;;;;;13.83;100.00;100596.16;5076323;28;20028;-37
2023/08/06 08:22:38;;;;;;;5.95;2.92;;;;;;;13.80;100.00;100588.53;5075903;28;19915;-37
2023/08/06 08:25:04;;;;;;;4.22;2.90;;;;;;;13.83;100.00;100598.88;5076690;28;20259;-38
2023/08/06 08:27:29;;;;;;;7.88;3.03;;;;;;;13.78;100.00;100593.41;5076477;28;20028;-37
2023/08/06 08:29:55;;;;;;;5.55;3.13;;;;;;;13.87;100.00;100602.72;5076078;28;20423;-37
2023/08/06 08:32:20;;;;;;;3.40;2.80;;;;;;;13.84;100.00;100603.25;5075666;28;20020;-38
2023/08/06 08:34:46;;;;;;;3.78;3.00;;;;;;;13.89;100.00;100611.44;5076826;28;20024;-36
2023/08/06 08:37:13;;;;;;;4.22;2.65;;;;;;;13.81;100.00;100595.59;5076573;28;20028;-37
2023/08/06 08:39:38;;;;;;;4.32;2.50;;;;;;;13.93;100.00;100609.03;5075802;28;20032;-37
2023/08/06 08:42:03;;;;;;;5.27;2.67;;;;;;;13.97;100.00;100615.59;5075619;28;20133;-36
2023/08/06 08:44:32;;;;;;;3.70;2.60;;;;;;;13.97;100.00;100616.41;5076065;28;20270;-36
2023/08/06 08:46:57;;;;;;;3.42;2.45;;;;;;;13.99;100.00;100610.72;5075497;28;20025;-38
2023/08/06 08:49:24;;;;;;;6.25;2.47;;;;;;;13.91;100.00;100593.00;5076570;28;20119;-37
2023/08/06 08:51:52;;;;;;;5.90;2.50;;;;;;;14.04;100.00;100608.03;5074477;28;20029;-37
2023/08/06 08:54:19;;;;;;;3.55;2.22;;;;;;;14.06;100.00;100614.03;5075647;28;20082;-37
2023/08/06 08:56:45;;;;;;;3.53;2.10;;;;;;;13.98;100.00;100606.34;5076123;28;20032;-37
2023/08/06 08:59:11;;;;;;;6.55;1.80;;;;;;;14.12;100.00;100613.81;5076246;28;20377;-37
2023/08/06 09:01:37;;;;;;;;;;;;;;;14.15;100.00;100629.63;5075873;28;20028;-36
2023/08/06 09:04:03;;;;;;;2.92;1.50;;;;;;;14.12;100.00;100630.13;5075962;28;19909;-37
2023/08/06 09:06:30;;;;;;;7.18;1.92;;;;;;;14.12;100.00;100632.84;5075469;28;20024;-37
2023/08/06 09:09:11;;;;;;;3.20;1.70;;;;;;;14.10;100.00;100642.31;5075867;28;20119;-37
2023/08/06 09:11:45;;;;;;;3.17;1.70;;;;;;;14.13;100.00;100648.06;5075056;28;20024;-37
2023/08/06 09:14:11;;;;;;;3.42;1.70;;;;;;;14.15;100.00;100643.22;5075540;28;20381;-37
2023/08/06 09:16:37;;;;;;;4.25;1.80;;;;;;;14.15;100.00;100650.53;5075173;28;20108;-37
2023/08/06 09:19:15;;;;;;;2.05;1.48;;;;;;;14.17;100.00;100653.81;5075039;28;20115;-37
2023/08/06 09:21:41;;;;;;;4.13;1.70;;;;;;;14.17;100.00;100657.38;5075924;28;20515;-37
2023/08/06 09:24:11;;;;;;;4.18;2.10;;;;;;;14.18;100.00;100660.91;5075340;28;20074;-37
2023/08/06 09:26:38;;;;;;;4.18;1.90;;;;;;;14.15;100.00;100664.97;5075564;28;20036;-37
2023/08/06 09:29:07;;;;;;;4.25;1.98;;;;;;;14.17;100.00;100670.97;5075150;28;20424;-37
2023/08/06 09:31:43;;;;;;;2.92;1.85;;;;;;;14.18;100.00;100667.16;5075728;28;20035;-37
2023/08/06 09:34:19;;;;;;;5.25;1.80;;;;;;;14.18;100.00;100671.78;5075416;28;20360;-38
2023/08/06 09:36:50;;;;;;;3.00;1.73;;;;;;;14.22;100.00;100680.25;5075394;28;20554;-37
2023/08/06 09:39:21;;;;;;;3.58;2.00;;;;;;;14.17;100.00;100672.88;5074293;28;20535;-37
2023/08/06 09:41:48;;;;;;;3.85;2.05;;;;;;;14.20;100.00;100682.38;5074699;28;20029;-37
2023/08/06 09:44:23;;;;;;;5.47;2.17;;;;;;;14.24;100.00;100686.22;5073970;28;20025;-36
2023/08/06 09:46:49;;;;;;;3.15;1.90;;;;;;;14.26;100.00;100684.09;5074816;28;20051;-37
2023/08/06 09:49:15;;;;;;;3.70;1.83;;;;;;;14.29;100.00;100689.81;5074793;28;20460;-37
2023/08/06 09:51:41;;;;;;;3.45;2.03;;;;;;;14.25;100.00;100679.72;5074749;28;20374;-36
2023/08/06 09:54:10;;;;;;;4.13;2.50;;;;;;;14.37;100.00;100686.63;5074383;28;20039;-37
2023/08/06 09:56:37;;;;;;;5.15;2.53;;;;;;;14.38;100.00;100698.31;5075182;28;20411;-37
2023/08/06 09:59:06;;;;;;;4.35;2.05;;;;;;;14.42;100.00;100699.44;5074482;28;20077;-37
2023/08/06 10:01:33;;;;;;;5.13;2.38;;;;;;;14.45;100.00;100703.56;5074262;28;20547;-37
2023/08/06 10:04:00;;;;;;;3.50;2.20;;;;;;;14.43;100.00;100695.63;5074112;28;20032;-37
2023/08/06 10:06:28;;;;;;;3.85;2.20;;;;;;;14.47;100.00;100702.22;5075033;28;20028;-37
2023/08/06 10:08:53;;;;;;;5.00;2.35;;;;;;;14.47;100.00;100695.94;5073872;28;20028;-37
2023/08/06 10:11:24;;;;;;;3.80;2.50;;;;;;;14.47;100.00;100702.22;5074995;28;20446;-37
2023/08/06 10:13:53;;;;;;;4.18;2.35;;;;;;;14.54;100.00;100702.84;5074021;28;20109;-37
2023/08/06 10:16:20;;;;;;;5.30;2.50;;;;;;;14.60;100.00;100711.88;5074267;28;20048;-37
2023/08/06 10:18:47;;;;;;;5.50;2.15;;;;;;;14.60;100.00;100707.25;5073586;28;20035;-37
2023/08/06 10:21:14;;;;;;;4.35;2.35;;;;;;;14.61;100.00;100719.75;5073942;28;20055;-37
2023/08/06 10:23:40;;;;;;;5.30;2.33;;;;;;;14.64;100.00;100713.81;5073839;28;20032;-37
2023/08/06 10:26:06;;;;;;;5.47;2.58;;;;;;;14.66;100.00;100716.25;5074149;28;20381;-37
2023/08/06 10:28:37;;;;;;;4.85;2.88;;;;;;;14.66;100.00;100718.97;5074431;28;20040;-37
2023/08/06 10:31:06;;;;;;;5.22;2.60;;;;;;;14.67;100.00;100717.91;5074693;28;20031;-37
2023/08/06 10:33:48;;;;;;;4.75;2.80;;;;;;;14.75;100.00;100713.88;5073818;28;20033;-37
2023/08/06 10:36:14;;;;;;;4.35;2.67;;;;;;;14.74;100.00;100720.38;5074083;28;20032;-37
2023/08/06 10:38:50;;;;;;;4.05;2.58;;;;;;;14.80;100.00;100719.34;5073720;28;20032;-37
2023/08/06 10:41:23;;;;;;;6.47;2.72;;;;;;;14.75;100.00;100711.16;5073703;28;20380;-37
2023/08/06 10:43:48;;;;;;;4.55;2.40;;;;;;;14.84;100.00;100723.19;5073976;28;20028;-37
2023/08/06 10:46:27;;;;;;;4.53;2.35;;;;;;;14.86;100.00;100727.28;5074509;28;20197;-37
2023/08/06 10:48:52;;;;;;;5.45;2.67;;;;;;;14.85;100.00;100717.50;5073639;28;20028;-38
2023/08/06 10:51:17;;;;;;;3.67;2.13;;;;;;;14.92;100.00;100733.59;5073872;28;20031;-37
2023/08/06 10:53:44;;;;;;;;;;;;;;;15.00;100.00;100733.09;5073572;28;20389;-37
2023/08/06 10:56:22;;;;;;;3.55;2.05;;;;;;;14.92;100.00;100714.53;5073577;28;19912;-37
2023/08/06 10:58:48;;;;;;;3.15;2.00;;;;;;;14.96;100.00;100729.25;5073453;28;20143;-37
2023/08/06 11:01:14;;;;;;;3.50;2.13;;;;;;;14.97;100.00;100733.63;5073250;28;20036;-37
2023/08/06 11:03:40;;;;;;;3.17;2.05;;;;;;;15.02;100.00;100732.81;5073172;28;20378;-37
2023/08/06 11:06:08;;;;;;;;;;;;;;;15.09;100.00;100731.53;5074179;28;20054;-37
2023/08/06 11:08:40;;;;;;;2.97;1.63;;;;;;;14.96;100.00;100734.69;5073386;28;19912;-37
2023/08/06 11:11:16;;;;;;;3.58;1.25;;;;;;;14.90;100.00;100730.31;5073431;28;20029;-37
2023/08/06 11:13:47;;;;;;;2.50;1.47;;;;;;;14.83;100.00;100741.41;5074250;28;20074;-37
2023/08/06 11:16:18;;;;;;;3.88;1.80;;;;;;;14.82;100.00;100733.50;5074223;28;20103;-37
2023/08/06 11:18:43;;;;;;;4.18;1.50;;;;;;;14.79;100.00;100734.06;5073177;28;20382;-37
2023/08/06 11:21:09;;;;;;;4.32;1.67;;;;;;;14.78;100.00;100735.13;5073612;28;20111;-37
2023/08/06 11:23:35;;;;;;;;;;;;;;;14.88;100.00;100746.91;5074224;28;20056;-37
2023/08/06 11:26:01;;;;;;;2.75;1.75;;;;;;;14.82;100.00;100737.06;5073829;28;20291;-37
2023/08/06 11:28:26;;;;;;;;;;;;;;;14.92;100.00;100742.56;5073379;28;20037;-37
2023/08/06 11:30:52;;;;;;;2.80;1.40;;;;;;;14.85;100.00;100735.72;5072951;28;19909;-37